Time;durP1;ratioP1;P1;durP2;ratioP2;P2;SDS_P1;SDS_P2;PMS_P1;PMS_P2;Temp;Humidity;BMP_temperature;BMP_pressure;BME280_temperature;BME280_humidity;BME280_pressure;Samples;Min_cycle;Max_cycle;Signal;HPM_P1;HPM_P2
2021/03/27 00:02:11;;;;;;;5.17;3.73;;;6.40;99.20;;;;;;4400127;32;20250;-69
2021/03/27 00:04:44;;;;;;;5.30;3.10;;;6.30;99.20;;;;;;4401386;32;20211;-69
2021/03/27 00:07:17;;;;;;;6.10;3.03;;;6.20;99.10;;;;;;4398071;32;20550;-68
2021/03/27 00:09:46;;;;;;;3.90;2.47;;;6.20;99.10;;;;;;4400230;32;20286;-69
2021/03/27 00:12:29;;;;;;;4.83;2.70;;;6.20;99.10;;;;;;4397513;32;20609;-68
2021/03/27 00:15:02;;;;;;;5.83;2.67;;;6.20;99.00;;;;;;4397024;32;20207;-69
2021/03/27 00:17:39;;;;;;;5.50;2.40;;;6.20;99.00;;;;;;4398948;32;20243;-68
2021/03/27 00:20:12;;;;;;;5.00;2.60;;;6.20;98.80;;;;;;4394459;32;20160;-68
2021/03/27 00:22:45;;;;;;;4.37;2.43;;;6.20;98.80;;;;;;4397418;32;20199;-69
2021/03/27 00:25:17;;;;;;;9.10;2.77;;;6.20;98.70;;;;;;4391092;32;20254;-69
2021/03/27 00:27:48;;;;;;;4.50;2.83;;;6.10;98.80;;;;;;4395609;32;20532;-67
2021/03/27 00:30:20;;;;;;;5.07;2.40;;;6.20;98.70;;;;;;4390072;32;20199;-67
2021/03/27 00:32:50;;;;;;;6.73;2.83;;;6.10;98.70;;;;;;4396766;32;20175;-66
2021/03/27 00:35:26;;;;;;;5.53;2.93;;;6.10;98.50;;;;;;4396182;32;20231;-68
2021/03/27 00:37:53;;;;;;;2.80;2.60;;;6.20;98.70;;;;;;4397798;32;20631;-68
2021/03/27 00:40:23;;;;;;;7.57;3.10;;;6.10;98.70;;;;;;4397199;32;20275;-67
2021/03/27 00:43:00;;;;;;;6.97;2.90;;;6.20;98.60;;;;;;4396125;32;20614;-69
2021/03/27 00:45:31;;;;;;;3.10;2.70;;;6.20;98.40;;;;;;4400215;32;20524;-67
2021/03/27 00:48:03;;;;;;;2.63;2.17;;;6.30;98.40;;;;;;4395527;32;20527;-68
2021/03/27 00:50:33;;;;;;;8.63;2.97;;;6.20;98.60;;;;;;4398488;32;20204;-68
2021/03/27 00:53:06;;;;;;;3.37;2.90;;;6.30;98.70;;;;;;4398442;32;20612;-70
2021/03/27 00:55:36;;;;;;;8.50;3.33;;;6.30;98.60;;;;;;4395787;32;20220;-68
2021/03/27 00:58:14;;;;;;;11.37;4.63;;;6.30;98.70;;;;;;4395564;32;20206;-69
2021/03/27 01:00:43;;;;;;;8.83;4.10;;;6.30;98.90;;;;;;4395990;32;20227;-68
2021/03/27 01:03:18;;;;;;;7.23;4.40;;;6.30;98.90;;;;;;4397430;32;20180;-68
2021/03/27 01:05:47;;;;;;;8.37;4.67;;;6.30;98.90;;;;;;4400294;32;20253;-68
2021/03/27 01:08:14;;;;;;;8.33;4.97;;;6.30;99.00;;;;;;4405213;32;20215;-68
2021/03/27 01:10:46;;;;;;;13.70;6.53;;;6.30;99.20;;;;;;4398773;32;20159;-68
2021/03/27 01:13:18;;;;;;;9.07;4.43;;;6.30;99.30;;;;;;4394761;32;20164;-69
2021/03/27 01:15:48;;;;;;;4.30;1.90;;;6.10;99.10;;;;;;4395750;32;20176;-68
2021/03/27 01:18:19;;;;;;;3.30;1.80;;;5.90;98.50;;;;;;4401190;32;20312;-68
2021/03/27 01:20:50;;;;;;;7.47;2.37;;;5.60;98.50;;;;;;4398564;32;20193;-68
2021/03/27 01:23:17;;;;;;;5.93;1.30;;;5.50;99.00;;;;;;4394696;32;20655;-68
2021/03/27 01:25:43;;;;;;;4.20;1.17;;;5.40;99.10;;;;;;4394636;32;20679;-68
2021/03/27 01:28:23;;;;;;;5.33;1.47;;;5.20;99.30;;;;;;4399773;32;20282;-68
2021/03/27 01:31:00;;;;;;;4.57;1.20;;;5.20;99.50;;;;;;4397127;32;20208;-68
2021/03/27 01:33:33;;;;;;;2.40;1.33;;;5.10;99.90;;;;;;4397667;32;20220;-68
2021/03/27 01:36:08;;;;;;;6.03;1.50;;;5.10;99.90;;;;;;4407279;32;20194;-68
2021/03/27 01:38:42;;;;;;;2.23;1.47;;;5.20;99.90;;;;;;4398118;32;20558;-68
2021/03/27 01:41:24;;;;;;;7.33;1.47;;;5.20;99.90;;;;;;4401134;32;20222;-68
2021/03/27 01:44:07;;;;;;;3.77;1.20;;;5.20;99.90;;;;;;4403429;32;20179;-68
2021/03/27 01:46:40;;;;;;;3.90;1.53;;;5.30;99.90;;;;;;4387804;32;20191;-68
2021/03/27 01:49:21;;;;;;;2.30;1.00;;;5.20;99.90;;;;;;4399840;32;20193;-68
2021/03/27 01:52:19;;;;;;;3.53;1.33;;;5.20;99.90;;;;;;4400076;32;20171;-68
2021/03/27 01:54:55;;;;;;;4.70;1.50;;;5.00;99.90;;;;;;4406536;32;20177;-68
2021/03/27 01:57:28;;;;;;;4.97;1.60;;;4.90;99.80;;;;;;4398862;32;20604;-68
2021/03/27 01:59:59;;;;;;;4.67;2.10;;;4.80;99.80;;;;;;4406573;32;20223;-68
2021/03/27 02:02:33;;;;;;;4.53;2.23;;;4.70;99.90;;;;;;4403939;32;20172;-68
2021/03/27 02:05:05;;;;;;;5.27;2.40;;;4.60;99.90;;;;;;4406381;32;20215;-67
2021/03/27 02:07:40;;;;;;;6.53;3.20;;;4.60;99.90;;;;;;4406894;32;20179;-68
2021/03/27 02:10:17;;;;;;;8.73;3.87;;;4.40;99.90;;;;;;4407069;32;20555;-68
2021/03/27 02:12:54;;;;;;;8.23;4.13;;;4.40;99.90;;;;;;4404672;32;20647;-69
2021/03/27 02:15:36;;;;;;;14.57;4.80;;;4.40;99.90;;;;;;4399858;32;20208;-68
2021/03/27 02:18:09;;;;;;;12.17;5.37;;;4.50;99.90;;;;;;4407151;32;20528;-68
2021/03/27 02:20:59;;;;;;;11.47;5.93;;;4.40;99.90;;;;;;4401730;32;20223;-68
2021/03/27 02:23:39;;;;;;;15.93;6.80;;;4.40;99.90;;;;;;4405654;32;20166;-68
2021/03/27 02:26:24;;;;;;;18.83;8.77;;;4.40;99.90;;;;;;4406342;32;20211;-68
2021/03/27 02:29:27;;;;;;;14.30;8.57;;;4.40;99.90;;;;;;4402503;32;20175;-69
2021/03/27 02:32:00;;;;;;;21.87;9.57;;;4.50;99.90;;;;;;4406220;32;20159;-68
2021/03/27 02:34:36;;;;;;;23.87;9.30;;;4.50;99.90;;;;;;4405703;32;20507;-68
2021/03/27 02:37:05;;;;;;;23.00;9.43;;;4.60;99.90;;;;;;4406276;32;20640;-68
2021/03/27 02:39:41;;;;;;;23.87;10.60;;;4.60;99.90;;;;;;4405889;32;20536;-68
2021/03/27 02:42:16;;;;;;;27.57;10.97;;;4.60;99.90;;;;;;4394190;32;20642;-68
2021/03/27 02:44:48;;;;;;;21.97;11.13;;;4.60;99.90;;;;;;4405648;32;20529;-68
2021/03/27 02:47:32;;;;;;;25.60;11.63;;;4.60;99.90;;;;;;4405819;32;20221;-67
2021/03/27 02:50:16;;;;;;;20.60;10.37;;;4.70;99.90;;;;;;4404349;32;20560;-68
2021/03/27 02:52:56;;;;;;;27.07;10.60;;;4.70;99.90;;;;;;4402812;32;20215;-67
2021/03/27 02:55:27;;;;;;;31.20;12.40;;;4.70;99.90;;;;;;4404049;32;20211;-68
2021/03/27 02:58:01;;;;;;;30.90;10.43;;;4.70;99.90;;;;;;4405998;32;20500;-67
2021/03/27 03:00:36;;;;;;;27.60;11.20;;;4.80;99.90;;;;;;4397729;32;20186;-66
2021/03/27 03:03:10;;;;;;;23.43;10.17;;;4.70;99.90;;;;;;4406086;32;20253;-67
2021/03/27 03:05:41;;;;;;;23.23;10.03;;;4.70;99.90;;;;;;4400986;32;20167;-67
2021/03/27 03:08:15;;;;;;;20.60;9.07;;;4.70;99.90;;;;;;4405717;32;20227;-66
2021/03/27 03:10:48;;;;;;;25.27;9.47;;;4.80;99.90;;;;;;4405149;32;20199;-66
2021/03/27 03:13:21;;;;;;;14.53;8.37;;;4.80;99.90;;;;;;4402412;32;20186;-67
2021/03/27 03:15:53;;;;;;;22.83;8.03;;;4.90;99.90;;;;;;4399084;32;20213;-67
2021/03/27 03:18:31;;;;;;;19.30;7.90;;;5.00;99.90;;;;;;4404896;32;20226;-66
2021/03/27 03:21:07;;;;;;;16.87;8.10;;;5.00;99.90;;;;;;4405207;32;20299;-67
2021/03/27 03:23:40;;;;;;;18.83;7.17;;;5.00;99.90;;;;;;4407403;32;20175;-67
2021/03/27 03:26:20;;;;;;;21.70;7.70;;;4.90;99.90;;;;;;4404856;32;20208;-67
2021/03/27 03:28:57;;;;;;;19.27;7.03;;;4.90;99.90;;;;;;4402717;32;20154;-67
2021/03/27 03:31:37;;;;;;;25.80;8.03;;;5.00;99.90;;;;;;4404736;32;20234;-66
2021/03/27 03:34:12;;;;;;;19.87;8.17;;;4.90;99.90;;;;;;4402939;32;20178;-66
2021/03/27 03:36:52;;;;;;;20.90;7.93;;;5.00;99.90;;;;;;4404499;32;20232;-68
2021/03/27 03:39:36;;;;;;;22.43;7.63;;;5.00;99.90;;;;;;4406624;32;20163;-66
2021/03/27 03:42:15;;;;;;;21.37;7.20;;;5.20;99.90;;;;;;4404048;32;20225;-67
2021/03/27 03:44:52;;;;;;;20.70;7.10;;;5.30;99.90;;;;;;4404920;32;20259;-68
2021/03/27 03:47:27;;;;;;;21.77;6.33;;;5.40;99.90;;;;;;4405957;32;20619;-67
2021/03/27 03:50:14;;;;;;;17.73;7.07;;;5.50;99.90;;;;;;4401055;32;20170;-66
2021/03/27 03:53:02;;;;;;;18.90;6.67;;;5.60;99.90;;;;;;4402343;32;20263;-66
2021/03/27 03:55:38;;;;;;;21.50;6.43;;;5.60;99.90;;;;;;4397564;32;20167;-66
2021/03/27 03:58:22;;;;;;;15.33;5.37;;;5.50;99.90;;;;;;4402480;32;20238;-66
2021/03/27 04:00:56;;;;;;;19.30;5.20;;;5.40;99.90;;;;;;4395792;32;20219;-66
2021/03/27 04:03:34;;;;;;;22.53;5.57;;;5.50;99.90;;;;;;4403267;32;20186;-67
2021/03/27 04:06:05;;;;;;;20.30;4.40;;;5.50;99.90;;;;;;4405136;32;20617;-68
2021/03/27 04:08:42;;;;;;;13.10;4.27;;;5.60;99.90;;;;;;4398101;32;20254;-66
2021/03/27 04:11:26;;;;;;;27.60;5.23;;;5.50;99.90;;;;;;4398547;32;20542;-66
2021/03/27 04:13:57;;;;;;;13.47;3.57;;;5.50;99.90;;;;;;4398291;32;20223;-67
2021/03/27 04:16:26;;;;;;;20.87;5.13;;;5.60;99.90;;;;;;4405117;32;20206;-66
2021/03/27 04:18:57;;;;;;;18.03;3.97;;;5.60;99.90;;;;;;4405536;32;20606;-68
2021/03/27 04:21:31;;;;;;;18.63;3.87;;;5.50;99.90;;;;;;4405506;32;20523;-67
2021/03/27 04:24:03;;;;;;;17.33;3.77;;;5.50;99.90;;;;;;4404588;32;20178;-68
2021/03/27 04:26:46;;;;;;;16.90;3.63;;;5.50;99.90;;;;;;4400047;32;20193;-66
2021/03/27 04:29:36;;;;;;;14.83;3.63;;;5.40;99.90;;;;;;4405605;32;20179;-67
2021/03/27 04:32:37;;;;;;;10.17;3.07;;;5.30;99.90;;;;;;4400573;32;20159;-67
2021/03/27 04:35:29;;;;;;;17.67;4.20;;;5.20;99.90;;;;;;4402769;32;20635;-66
2021/03/27 04:38:13;;;;;;;22.37;3.93;;;5.20;99.90;;;;;;4404126;32;20281;-66
2021/03/27 04:40:45;;;;;;;13.60;3.70;;;5.30;99.90;;;;;;4404416;32;20191;-68
2021/03/27 04:43:19;;;;;;;21.23;4.33;;;5.40;99.90;;;;;;4398964;32;20486;-66
2021/03/27 04:45:50;;;;;;;16.40;3.47;;;5.50;99.90;;;;;;4404394;32;20219;-65
2021/03/27 04:48:23;;;;;;;14.20;3.30;;;5.50;99.90;;;;;;4401221;32;20239;-66
2021/03/27 04:50:57;;;;;;;16.17;3.73;;;5.60;99.90;;;;;;4405608;32;20170;-68
2021/03/27 04:53:29;;;;;;;12.73;2.83;;;5.60;99.90;;;;;;4403350;32;20615;-68
2021/03/27 04:56:06;;;;;;;18.60;3.53;;;5.60;99.90;;;;;;4405907;32;20216;-65
2021/03/27 04:58:41;;;;;;;11.97;3.33;;;5.70;99.90;;;;;;4403509;32;20155;-66
2021/03/27 05:01:20;;;;;;;13.30;3.40;;;5.70;99.90;;;;;;4402498;32;20178;-65
2021/03/27 05:03:58;;;;;;;15.93;4.40;;;5.60;99.90;;;;;;4403518;32;20219;-66
2021/03/27 05:06:35;;;;;;;19.80;3.40;;;5.50;99.80;;;;;;4394148;32;20241;-66
2021/03/27 05:09:24;;;;;;;11.37;3.00;;;5.50;99.90;;;;;;4401076;32;20234;-66
2021/03/27 05:11:57;;;;;;;19.73;2.90;;;5.50;99.90;;;;;;4396161;32;20175;-66
2021/03/27 05:14:40;;;;;;;17.97;3.50;;;5.50;99.30;;;;;;4403766;32;20167;-66
2021/03/27 05:17:13;;;;;;;11.13;2.53;;;5.40;99.30;;;;;;4404212;32;20206;-65
2021/03/27 05:19:45;;;;;;;17.13;3.07;;;5.30;99.20;;;;;;4403956;32;20159;-65
2021/03/27 05:22:25;;;;;;;21.40;3.43;;;5.30;99.10;;;;;;4403813;32;20564;-65
2021/03/27 05:25:23;;;;;;;19.40;3.93;;;5.20;99.20;;;;;;4403202;32;20620;-65
2021/03/27 05:28:07;;;;;;;12.13;3.03;;;5.20;99.10;;;;;;4402884;32;20254;-65
2021/03/27 05:30:46;;;;;;;16.57;2.70;;;5.20;99.20;;;;;;4403430;32;20200;-65
2021/03/27 05:33:31;;;;;;;12.20;3.67;;;5.30;99.10;;;;;;4404844;32;20217;-65
2021/03/27 05:36:12;;;;;;;21.00;3.90;;;5.40;99.10;;;;;;4395188;32;20160;-67
2021/03/27 05:38:45;;;;;;;12.07;3.30;;;5.50;98.50;;;;;;4405146;32;20556;-67
2021/03/27 05:41:52;;;;;;;25.43;3.63;;;5.60;98.50;;;;;;4408524;32;20211;-65
2021/03/27 05:44:52;;;;;;;10.60;2.07;;;5.60;96.10;;;;;;4405829;32;20596;-65
2021/03/27 05:48:11;;;;;;;11.73;2.37;;;5.60;95.20;;;;;;4349950;32;20216;-69
2021/03/27 05:51:15;;;;;;;17.77;3.07;;;5.50;96.00;;;;;;4333899;33;20231;-65
2021/03/27 05:53:57;;;;;;;7.37;1.70;;;5.40;96.00;;;;;;4344236;33;20171;-68
2021/03/27 05:56:59;;;;;;;7.67;1.80;;;5.30;95.60;;;;;;4345358;33;20227;-70
2021/03/27 05:59:54;;;;;;;10.37;2.50;;;5.30;95.60;;;;;;4345015;32;20299;-65
2021/03/27 06:02:39;;;;;;;10.10;2.20;;;5.20;95.40;;;;;;4342885;33;20247;-65
2021/03/27 06:05:30;;;;;;;10.13;2.37;;;5.10;95.60;;;;;;4336173;33;20183;-64
2021/03/27 06:08:49;;;;;;;10.00;2.90;;;5.10;95.50;;;;;;4339340;33;20189;-65
2021/03/27 06:11:38;;;;;;;9.20;2.00;;;5.10;95.20;;;;;;4332042;33;20218;-65
2021/03/27 06:14:27;;;;;;;5.97;1.87;;;5.10;95.40;;;;;;4329379;33;20230;-65
2021/03/27 06:17:19;;;;;;;9.27;1.60;;;5.10;95.30;;;;;;4326726;33;20203;-64
2021/03/27 06:20:02;;;;;;;10.00;2.43;;;5.00;95.50;;;;;;4320745;33;20181;-65
2021/03/27 06:22:45;;;;;;;10.53;2.13;;;5.00;96.00;;;;;;4324617;33;20667;-65
2021/03/27 06:25:42;;;;;;;10.10;2.43;;;5.10;95.80;;;;;;4339776;33;20181;-65
2021/03/27 06:28:24;;;;;;;10.10;2.50;;;5.10;95.70;;;;;;4357957;32;20247;-65
2021/03/27 06:31:09;;;;;;;12.00;2.37;;;5.20;95.60;;;;;;4385583;32;20294;-65
2021/03/27 06:34:06;;;;;;;13.93;2.43;;;5.30;95.20;;;;;;4389121;32;20156;-65
2021/03/27 06:36:56;;;;;;;8.97;1.87;;;5.40;95.10;;;;;;4342924;33;20451;-65
2021/03/27 06:40:15;;;;;;;10.57;2.10;;;5.50;95.00;;;;;;4341140;32;20189;-64
2021/03/27 06:43:20;;;;;;;7.37;2.43;;;5.80;94.40;;;;;;4281186;33;20236;-65
2021/03/27 06:46:00;;;;;;;11.17;2.10;;;6.10;94.30;;;;;;4229755;33;20229;-65
2021/03/27 06:49:03;;;;;;;14.23;2.67;;;6.60;93.40;;;;;;4229235;33;20185;-64
2021/03/27 06:51:58;;;;;;;11.80;2.53;;;6.60;92.90;;;;;;4244129;33;20306;-64
2021/03/27 06:54:48;;;;;;;15.00;2.47;;;6.40;93.60;;;;;;4242856;33;20608;-65
2021/03/27 06:57:31;;;;;;;18.57;2.40;;;6.30;93.50;;;;;;4240913;33;20747;-64
2021/03/27 07:00:42;;;;;;;12.23;2.53;;;6.30;93.50;;;;;;4240214;33;20377;-64
2021/03/27 07:03:50;;;;;;;12.40;2.33;;;6.40;94.00;;;;;;4240834;33;20655;-66
2021/03/27 07:06:50;;;;;;;15.43;2.67;;;6.60;93.70;;;;;;4158316;34;20252;-65
2021/03/27 07:15:06;;;;;;;16.83;2.87;;;6.80;92.50;;;;;;4198937;34;20247;-65
2021/03/27 07:17:47;;;;;;;12.17;3.00;;;6.70;93.00;;;;;;4217805;34;20195;-65
2021/03/27 07:20:41;;;;;;;19.97;3.47;;;6.70;93.20;;;;;;4214082;34;20184;-65
2021/03/27 07:23:35;;;;;;;15.53;2.57;;;6.70;92.70;;;;;;4208523;34;20176;-65
2021/03/27 07:26:41;;;;;;;18.03;3.87;;;6.90;92.80;;;;;;4213399;34;20210;-64
2021/03/27 07:29:45;;;;;;;14.83;3.60;;;7.10;92.30;;;;;;4210954;34;20589;-65
2021/03/27 07:32:33;;;;;;;10.20;2.47;;;7.30;92.10;;;;;;4227192;34;20505;-65
2021/03/27 07:35:28;;;;;;;12.93;3.20;;;7.70;91.80;;;;;;4228109;34;20206;-64
2021/03/27 07:38:29;;;;;;;14.53;2.73;;;8.20;89.50;;;;;;4228225;34;20221;-65
2021/03/27 07:41:03;;;;;;;17.07;3.00;;;8.40;88.30;;;;;;4227884;34;20219;-64
2021/03/27 07:43:58;;;;;;;15.60;3.30;;;8.50;86.40;;;;;;4280266;33;20785;-65
2021/03/27 07:47:01;;;;;;;14.47;3.43;;;8.70;86.50;;;;;;4295863;33;20222;-65
2021/03/27 07:50:04;;;;;;;18.20;3.40;;;8.90;86.20;;;;;;4268614;33;20499;-66
2021/03/27 07:52:41;;;;;;;14.27;4.17;;;8.70;84.90;;;;;;4266533;33;20499;-66
2021/03/27 07:55:41;;;;;;;21.40;3.40;;;8.80;84.30;;;;;;4270645;33;20230;-65
2021/03/27 07:58:30;;;;;;;18.00;3.70;;;9.00;85.00;;;;;;4270049;33;20178;-66
2021/03/27 08:01:28;;;;;;;20.10;3.93;;;9.20;83.90;;;;;;4228750;34;20684;-66
2021/03/27 08:04:22;;;;;;;16.43;3.87;;;9.60;82.70;;;;;;4227144;34;20226;-66
2021/03/27 08:06:52;;;;;;;12.70;3.33;;;9.00;83.40;;;;;;4240077;33;20187;-66
2021/03/27 08:10:08;;;;;;;21.60;3.83;;;9.30;84.40;;;;;;4256672;33;20190;-66
2021/03/27 08:12:59;;;;;;;16.80;3.47;;;10.00;82.00;;;;;;4227336;34;20246;-66
2021/03/27 08:15:56;;;;;;;17.27;3.63;;;10.30;80.40;;;;;;4229713;34;20594;-65
2021/03/27 08:18:50;;;;;;;16.17;3.47;;;10.10;76.90;;;;;;4172919;34;20188;-65
2021/03/27 08:21:25;;;;;;;17.73;3.57;;;9.10;81.40;;;;;;4172860;34;20165;-65
2021/03/27 08:24:03;;;;;;;9.13;2.50;;;8.30;84.40;;;;;;4187739;34;20598;-67
2021/03/27 08:27:00;;;;;;;10.80;2.60;;;7.80;80.80;;;;;;4212124;34;20215;-66
2021/03/27 08:30:05;;;;;;;14.07;2.53;;;7.50;82.00;;;;;;4222213;34;20647;-66
2021/03/27 08:33:13;;;;;;;16.97;3.10;;;7.30;85.20;;;;;;4220471;33;20262;-66
2021/03/27 08:36:13;;;;;;;11.83;3.00;;;7.60;86.20;;;;;;4232653;33;20222;-67
2021/03/27 08:39:03;;;;;;;10.43;3.10;;;10.50;78.80;;;;;;4259486;33;20375;-65
2021/03/27 08:41:45;;;;;;;10.70;2.63;;;15.40;65.20;;;;;;4281909;33;20197;-65
2021/03/27 08:44:42;;;;;;;15.73;2.70;;;20.80;50.20;;;;;;4314238;33;20636;-67
2021/03/27 08:47:50;;;;;;;11.93;2.53;;;23.10;40.30;;;;;;4320257;33;20583;-66
2021/03/27 08:50:54;;;;;;;9.30;2.53;;;19.70;43.40;;;;;;4280806;33;20180;-66
2021/03/27 08:53:51;;;;;;;12.03;2.93;;;15.80;51.40;;;;;;4277351;33;20309;-65
2021/03/27 08:56:48;;;;;;;14.93;3.07;;;12.70;61.30;;;;;;4333911;33;20291;-66
2021/03/27 08:59:58;;;;;;;16.03;2.77;;;11.30;68.30;;;;;;4338946;33;20252;-65
2021/03/27 09:02:45;;;;;;;8.37;2.50;;;10.90;70.30;;;;;;4341048;33;20622;-66
2021/03/27 09:05:34;;;;;;;14.27;2.37;;;10.60;71.80;;;;;;4338671;33;20166;-66
2021/03/27 09:08:32;;;;;;;13.33;2.67;;;10.60;70.50;;;;;;4340605;33;20325;-66
2021/03/27 09:11:17;;;;;;;10.93;2.77;;;9.90;72.40;;;;;;4299998;33;20193;-66
2021/03/27 09:13:51;;;;;;;10.70;2.90;;;9.60;74.50;;;;;;4294892;33;20193;-65
2021/03/27 09:16:54;;;;;;;13.40;3.13;;;9.70;75.80;;;;;;4297128;33;20204;-65
2021/03/27 09:19:52;;;;;;;15.13;2.70;;;10.20;71.20;;;;;;4297606;33;20178;-69
2021/03/27 09:22:45;;;;;;;13.37;2.70;;;10.30;72.40;;;;;;4295105;33;20196;-65
2021/03/27 09:25:29;;;;;;;14.87;2.77;;;10.10;72.30;;;;;;4296947;33;20282;-66
2021/03/27 09:28:22;;;;;;;10.33;2.87;;;9.50;73.70;;;;;;4337193;32;20615;-66
2021/03/27 09:30:59;;;;;;;10.60;2.73;;;9.90;73.20;;;;;;4335902;33;20224;-66
2021/03/27 09:33:28;;;;;;;9.10;2.13;;;9.80;71.90;;;;;;4335759;33;20227;-66
2021/03/27 09:36:17;;;;;;;12.07;2.60;;;9.50;73.10;;;;;;4338586;33;20213;-66
2021/03/27 09:38:50;;;;;;;7.07;2.13;;;9.80;74.00;;;;;;4339077;33;20224;-66
2021/03/27 09:41:44;;;;;;;8.90;2.80;;;9.90;71.20;;;;;;4342762;33;20173;-66
2021/03/27 09:44:42;;;;;;;12.37;2.37;;;9.70;71.80;;;;;;4338976;33;20169;-67
2021/03/27 09:47:27;;;;;;;9.90;2.30;;;9.40;70.90;;;;;;4338387;32;20206;-67
2021/03/27 09:49:59;;;;;;;10.90;2.83;;;9.30;70.30;;;;;;4390524;32;20507;-66
2021/03/27 09:52:41;;;;;;;8.60;2.13;;;9.60;70.10;;;;;;4397151;32;20484;-66
2021/03/27 09:55:37;;;;;;;10.43;2.20;;;9.90;70.10;;;;;;4395768;32;20529;-69
2021/03/27 09:58:13;;;;;;;10.30;2.30;;;9.90;69.10;;;;;;4394312;32;20231;-67
2021/03/27 10:00:54;;;;;;;11.20;2.37;;;9.50;69.20;;;;;;4397580;32;20553;-66
2021/03/27 10:03:31;;;;;;;7.97;2.30;;;9.80;69.40;;;;;;4395246;32;20532;-65
2021/03/27 10:06:36;;;;;;;12.30;2.50;;;9.80;69.30;;;;;;4396084;32;20536;-68
2021/03/27 10:09:09;;;;;;;11.53;2.27;;;9.90;68.00;;;;;;4395919;32;20221;-68
2021/03/27 10:11:39;;;;;;;12.07;1.80;;;9.80;67.40;;;;;;4400980;32;20188;-65
2021/03/27 10:14:18;;;;;;;12.73;1.93;;;9.50;69.30;;;;;;4397664;32;20224;-68
2021/03/27 10:16:49;;;;;;;12.63;2.33;;;10.10;68.30;;;;;;4395958;32;20168;-66
2021/03/27 10:19:48;;;;;;;11.43;2.40;;;10.00;69.20;;;;;;4397039;32;20219;-66
2021/03/27 10:22:23;;;;;;;7.53;2.10;;;9.80;69.50;;;;;;4328602;33;20861;-69
2021/03/27 10:25:00;;;;;;;10.57;2.60;;;9.90;68.40;;;;;;4324212;33;20233;-66
2021/03/27 10:27:40;;;;;;;13.03;2.77;;;9.80;68.40;;;;;;4323419;33;20220;-67
2021/03/27 10:30:18;;;;;;;13.00;2.40;;;10.20;69.70;;;;;;4325594;33;20715;-66
2021/03/27 10:33:00;;;;;;;14.90;2.40;;;10.80;66.20;;;;;;4324170;33;20717;-67
2021/03/27 10:36:02;;;;;;;10.60;2.00;;;11.00;66.80;;;;;;4330367;33;20562;-67
2021/03/27 10:39:11;;;;;;;11.23;2.57;;;11.50;64.50;;;;;;4326044;33;20233;-67
2021/03/27 10:41:56;;;;;;;14.00;2.67;;;11.30;64.60;;;;;;4279568;33;20535;-66
2021/03/27 10:44:32;;;;;;;9.63;2.90;;;11.00;64.60;;;;;;4280087;33;20195;-67
2021/03/27 10:47:04;;;;;;;12.90;2.43;;;10.90;65.70;;;;;;4282047;33;20243;-67
2021/03/27 10:49:37;;;;;;;9.43;2.80;;;10.80;66.40;;;;;;4283195;33;20257;-68
2021/03/27 10:52:38;;;;;;;15.13;2.83;;;10.60;67.60;;;;;;4280840;33;20180;-67
2021/03/27 10:55:53;;;;;;;8.73;2.20;;;10.50;67.80;;;;;;4282605;33;20448;-68
2021/03/27 10:58:59;;;;;;;12.57;2.37;;;10.20;68.90;;;;;;4308704;33;21315;-67
2021/03/27 11:01:51;;;;;;;9.27;2.13;;;10.00;66.90;;;;;;4292279;33;20308;-66
2021/03/27 11:04:54;;;;;;;12.80;2.07;;;9.60;69.10;;;;;;4291333;33;20175;-66
2021/03/27 11:08:03;;;;;;;15.33;2.53;;;9.20;72.30;;;;;;4296122;33;20212;-67
2021/03/27 11:11:02;;;;;;;9.37;2.47;;;8.80;74.40;;;;;;4298415;33;20258;-66
2021/03/27 11:13:59;;;;;;;10.67;2.60;;;8.80;74.80;;;;;;4294816;33;20233;-68
2021/03/27 11:17:06;;;;;;;10.93;2.37;;;8.70;73.80;;;;;;4292302;33;20269;-69
2021/03/27 11:19:56;;;;;;;10.33;2.77;;;8.90;73.50;;;;;;4357541;32;20176;-67
2021/03/27 11:23:03;;;;;;;13.13;2.30;;;8.90;73.60;;;;;;4355304;33;20221;-67
2021/03/27 11:25:46;;;;;;;11.97;3.30;;;9.10;72.80;;;;;;4350684;32;20216;-66
2021/03/27 11:28:22;;;;;;;11.40;2.70;;;9.50;72.80;;;;;;4349586;32;20514;-66
2021/03/27 11:31:11;;;;;;;13.87;2.53;;;10.10;71.10;;;;;;4344368;33;20229;-68
2021/03/27 11:33:43;;;;;;;9.33;2.47;;;10.40;69.50;;;;;;4352118;33;20229;-67
2021/03/27 11:36:15;;;;;;;11.80;2.67;;;10.60;70.00;;;;;;4345693;32;20206;-68
2021/03/27 11:38:46;;;;;;;7.30;2.33;;;10.50;69.70;;;;;;4385239;32;20200;-67
2021/03/27 11:41:22;;;;;;;14.60;2.53;;;10.10;69.90;;;;;;4395260;32;20523;-67
2021/03/27 11:44:03;;;;;;;11.10;2.67;;;9.60;70.80;;;;;;4393383;32;20161;-68
2021/03/27 11:46:38;;;;;;;13.00;3.10;;;9.40;71.80;;;;;;4394833;32;20175;-66
2021/03/27 11:49:10;;;;;;;11.40;2.73;;;9.50;71.90;;;;;;4404882;32;20183;-67
2021/03/27 11:51:42;;;;;;;9.23;2.43;;;9.50;71.70;;;;;;4403640;32;20183;-64
2021/03/27 11:54:21;;;;;;;9.13;2.70;;;9.80;72.30;;;;;;4403897;32;20592;-67
2021/03/27 11:56:55;;;;;;;11.43;2.57;;;10.20;71.50;;;;;;4404104;32;20159;-66
2021/03/27 12:02:47;;;;;;;11.37;3.03;;;11.00;67.30;;;;;;4405044;32;20227;-68
2021/03/27 12:05:20;;;;;;;18.93;3.53;;;11.10;66.80;;;;;;4405327;32;20233;-68
2021/03/27 12:07:59;;;;;;;12.13;2.70;;;10.90;67.60;;;;;;4405275;32;20216;-67
2021/03/27 12:10:46;;;;;;;14.77;3.13;;;10.40;66.60;;;;;;4400843;32;20174;-66
2021/03/27 12:13:21;;;;;;;12.73;2.73;;;10.20;68.10;;;;;;4398146;32;20187;-67
2021/03/27 12:15:53;;;;;;;15.97;3.13;;;10.10;68.80;;;;;;4398889;32;20190;-66
2021/03/27 12:19:07;;;;;;;14.10;2.47;;;10.30;66.90;;;;;;4394020;32;20188;-69
2021/03/27 12:21:37;;;;;;;13.33;2.03;;;10.60;69.40;;;;;;4337600;33;20188;-67
2021/03/27 12:24:26;;;;;;;15.47;3.13;;;10.70;68.10;;;;;;4345750;32;20231;-68
2021/03/27 12:27:02;;;;;;;11.57;3.17;;;11.20;66.90;;;;;;4328267;33;20181;-68
2021/03/27 12:29:37;;;;;;;16.37;3.03;;;10.60;67.90;;;;;;4329939;33;20304;-67
2021/03/27 12:32:34;;;;;;;17.50;3.50;;;10.50;67.10;;;;;;4339127;33;20201;-66
2021/03/27 12:35:06;;;;;;;9.10;2.77;;;10.80;65.90;;;;;;4336312;33;20304;-69
2021/03/27 12:37:37;;;;;;;14.03;2.97;;;10.60;66.10;;;;;;4334369;33;20229;-68
2021/03/27 12:40:18;;;;;;;17.97;3.67;;;10.30;67.70;;;;;;4332079;33;20220;-67
2021/03/27 12:42:48;;;;;;;11.63;3.10;;;10.50;68.90;;;;;;4347840;33;20221;-67
2021/03/27 12:45:20;;;;;;;14.10;3.13;;;11.00;68.60;;;;;;4352932;33;20178;-66
2021/03/27 12:48:17;;;;;;;10.53;2.97;;;11.20;65.60;;;;;;4345336;33;20172;-67
2021/03/27 12:51:13;;;;;;;14.47;3.30;;;11.30;64.30;;;;;;4343066;33;20186;-67
2021/03/27 12:53:59;;;;;;;12.07;2.97;;;11.00;65.60;;;;;;4341384;33;20263;-67
2021/03/27 12:56:43;;;;;;;9.23;3.00;;;11.00;65.80;;;;;;4345671;33;20252;-67
2021/03/27 12:59:16;;;;;;;11.87;2.77;;;10.50;66.20;;;;;;4378552;32;20160;-69
2021/03/27 13:02:04;;;;;;;8.63;2.43;;;10.50;67.90;;;;;;4390087;32;20250;-69
2021/03/27 13:05:02;;;;;;;14.13;2.87;;;10.60;66.30;;;;;;4390334;32;20227;-69
2021/03/27 13:07:36;;;;;;;15.60;3.47;;;10.70;66.50;;;;;;4389972;32;20165;-71
2021/03/27 13:10:36;;;;;;;11.60;3.00;;;11.00;66.30;;;;;;4387549;32;20186;-69
2021/03/27 13:13:38;;;;;;;14.97;3.20;;;11.10;65.40;;;;;;4361015;32;20703;-68
2021/03/27 13:16:13;;;;;;;14.17;3.43;;;10.90;66.00;;;;;;4300965;33;20569;-67
2021/03/27 13:19:04;;;;;;;13.20;3.13;;;10.90;66.40;;;;;;4296795;33;20233;-68
2021/03/27 13:21:53;;;;;;;14.13;3.37;;;10.70;67.70;;;;;;4300189;33;20271;-67
2021/03/27 13:24:22;;;;;;;11.53;3.13;;;10.80;67.90;;;;;;4300764;33;20228;-69
2021/03/27 13:27:00;;;;;;;16.57;3.00;;;11.00;66.40;;;;;;4302177;33;20233;-69
2021/03/27 13:29:32;;;;;;;11.80;2.93;;;11.20;65.60;;;;;;4297531;33;20196;-68
2021/03/27 13:32:06;;;;;;;17.17;3.30;;;11.40;64.40;;;;;;4292976;33;20172;-67
2021/03/27 13:34:39;;;;;;;16.80;3.37;;;11.20;64.50;;;;;;4300703;33;20233;-68
2021/03/27 13:37:12;;;;;;;12.87;2.60;;;11.20;64.90;;;;;;4298958;33;20257;-67
2021/03/27 13:39:42;;;;;;;15.93;3.63;;;11.40;63.50;;;;;;4298240;33;20639;-69
2021/03/27 13:42:38;;;;;;;10.20;2.33;;;11.20;65.40;;;;;;4297489;33;20265;-68
2021/03/27 13:45:15;;;;;;;17.00;2.93;;;11.10;65.60;;;;;;4251737;33;20243;-68
2021/03/27 13:47:46;;;;;;;14.63;2.77;;;10.80;66.00;;;;;;4258036;33;20718;-67
2021/03/27 13:50:28;;;;;;;17.20;4.17;;;10.80;66.80;;;;;;4292909;33;20249;-67
2021/03/27 13:53:10;;;;;;;9.27;2.90;;;11.00;67.50;;;;;;4341521;32;20190;-68
2021/03/27 13:55:39;;;;;;;14.67;2.93;;;10.90;65.30;;;;;;4371491;32;20300;-67
2021/03/27 13:58:18;;;;;;;14.43;3.17;;;11.00;65.50;;;;;;4372409;32;20230;-68
2021/03/27 14:00:54;;;;;;;13.57;3.50;;;10.80;65.40;;;;;;4371227;32;20295;-68
2021/03/27 14:03:59;;;;;;;11.57;3.50;;;10.60;66.10;;;;;;4364334;32;20176;-68
2021/03/27 14:06:33;;;;;;;21.03;3.50;;;10.30;65.70;;;;;;4305516;33;20176;-67
2021/03/27 14:09:18;;;;;;;16.60;3.10;;;10.10;66.10;;;;;;4313457;33;20172;-66
2021/03/27 14:11:55;;;;;;;11.27;3.10;;;10.00;67.50;;;;;;4307510;33;20223;-69
2021/03/27 14:14:28;;;;;;;14.27;2.97;;;10.30;66.70;;;;;;4313018;33;20182;-67
2021/03/27 14:17:08;;;;;;;11.17;3.00;;;10.40;66.70;;;;;;4308933;33;20229;-68